Varmdo — SMXZ — position and weather

sailwx.info

Track history (hours):
 
Tides and Currents Weather Stations Pressure Air Temp Water Temp Dewpoint Dewpoint Depression Visibility Wind Speed Wind Dir Waves Ship Positions

Varmdo

Last reported at 2015-Jul-04 20:31 UTC. Time now 2015-Jul-04 20:43 UTC.
Position N 59°20' E 018°05'.

Length 38 m; draft 2.5 m.

Type: Passenger vessel. MMSI: 265520390.

Date/timePositionNaut miles runAvg speedWind from/ knotsBaromVisibWave heightAir tempDewpointWater temp
2015-Jul-04 20:31N 59°20' E 018°05'0 0.0
2015-Jul-04 19:31N 59°20' E 018°05'0 0.0
2015-Jul-04 18:31N 59°20' E 018°05'0 0.0
2015-Jul-04 17:28N 59°20' E 018°05'0 0.0
2015-Jul-04 16:31N 59°20' E 018°05'0 0.0
2015-Jul-04 15:31N 59°20' E 018°05'7 5.9
2015-Jul-04 14:16N 59°23' E 018°18'6 6.1
2015-Jul-04 13:13N 59°19' E 018°07'2 2.6
2015-Jul-04 12:30N 59°20' E 018°11'5 1.0
2015-Jul-04 07:17N 59°23' E 018°19'810.5
2015-Jul-04 06:33N 59°19' E 018°05'0 0.3
2015-Jul-04 05:33N 59°20' E 018°04'0 0.0
2015-Jul-04 04:31N 59°20' E 018°04'0 0.0
2015-Jul-04 03:33N 59°20' E 018°04'0 0.0
2015-Jul-04 02:34N 59°20' E 018°04'0 0.0
2015-Jul-04 01:31N 59°20' E 018°04'0 0.0
2015-Jul-04 00:30N 59°20' E 018°04'0 0.0
2015-Jul-03 23:31N 59°20' E 018°04'0 0.0
2015-Jul-03 22:33N 59°20' E 018°04'0 0.0
2015-Jul-03 21:34N 59°20' E 018°04'0 0.0
2015-Jul-03 20:31N 59°20' E 018°04'0 0.0
2015-Jul-03 19:34N 59°20' E 018°04'0 0.0
2015-Jul-03 18:31N 59°20' E 018°04'0 0.0
2015-Jul-03 17:34N 59°20' E 018°04'0 0.1
2015-Jul-03 09:33N 59°19' E 018°05'0 0.4
2015-Jul-03 08:33N 59°20' E 018°05'3 0.2
2015-Jul-02 15:28N 59°20' E 018°11'3 2.4
2015-Jul-02 14:04N 59°20' E 018°05'7 8.7
2015-Jul-02 13:15N 59°23' E 018°17'1 0.2
2015-Jul-02 07:16N 59°23' E 018°20'811.7
2015-Jul-02 06:34N 59°19' E 018°05'0 0.4
2015-Jul-02 05:33N 59°20' E 018°05'0 0.0
2015-Jul-02 04:33N 59°20' E 018°05'0 0.0
2015-Jul-02 03:33N 59°20' E 018°05'0 0.0
2015-Jul-02 02:33N 59°20' E 018°05'0 0.0
2015-Jul-02 01:33N 59°20' E 018°05'0 0.0
2015-Jul-02 00:33N 59°20' E 018°05'0 0.0
2015-Jul-01 23:27N 59°20' E 018°05'0 0.0
2015-Jul-01 22:33N 59°20' E 018°05'0 0.0
2015-Jul-01 21:33N 59°20' E 018°05'0 0.0
2015-Jul-01 20:30N 59°20' E 018°05'0 0.0
2015-Jul-01 14:33N 59°19' E 018°05'0 0.3
2015-Jul-01 13:33N 59°20' E 018°05'0 0.0
2015-Jul-01 12:33N 59°20' E 018°05'0 0.0
2015-Jul-01 11:33N 59°20' E 018°05'0 0.0
2015-Jul-01 10:33N 59°20' E 018°05'0 0.0
2015-Jul-01 09:33N 59°20' E 018°05'0 0.0
2015-Jul-01 08:33N 59°20' E 018°05'0 0.0
2015-Jun-30 13:33N 59°20' E 018°05'3 2.7
2015-Jun-30 12:33N 59°19' E 018°10'3 0.6
2015-Jun-30 07:33N 59°20' E 018°05'0 0.0
2015-Jun-30 06:27N 59°20' E 018°05'4 0.2
2015-Jun-29 14:23N 59°20' E 018°12'4 4.2
2015-Jun-29 13:32N 59°20' E 018°05'4 0.5
2015-Jun-29 06:23N 59°20' E 018°11'4 3.9
2015-Jun-29 05:29N 59°20' E 018°04'0 0.0
2015-Jun-29 04:29N 59°20' E 018°04'0 0.0
2015-Jun-29 03:32N 59°20' E 018°04'0 0.0
2015-Jun-29 02:29N 59°20' E 018°04'0 0.0
2015-Jun-29 01:32N 59°20' E 018°04'0 0.0
2015-Jun-29 00:32N 59°20' E 018°04'0 0.0
2015-Jun-28 23:29N 59°20' E 018°04'0 0.0
2015-Jun-28 22:32N 59°20' E 018°04'0 0.0
2015-Jun-28 21:32N 59°20' E 018°04'0 0.0
2015-Jun-28 20:32N 59°20' E 018°04'0 0.0
2015-Jun-28 19:32N 59°20' E 018°04'0 0.2
2015-Jun-28 18:33N 59°20' E 018°05'3 0.5
2015-Jun-28 13:33N 59°19' E 018°10'5 3.9
2015-Jun-28 12:12N 59°23' E 018°18'7 1.3
2015-Jun-28 06:33N 59°20' E 018°05'0 0.2
2015-Jun-28 05:32N 59°20' E 018°04'0 0.0
2015-Jun-28 04:32N 59°20' E 018°04'0 0.0
2015-Jun-28 03:32N 59°20' E 018°04'0 0.0
2015-Jun-28 02:32N 59°20' E 018°04'0 0.0
2015-Jun-28 01:26N 59°20' E 018°04'0 0.0
2015-Jun-28 00:32N 59°20' E 018°04'0 0.0
2015-Jun-27 23:32N 59°20' E 018°04'0 0.0
2015-Jun-27 22:26N 59°20' E 018°04'0 0.0
2015-Jun-27 21:32N 59°20' E 018°04'0 0.0
2015-Jun-27 20:32N 59°20' E 018°04'0 0.0
2015-Jun-27 19:32N 59°20' E 018°04'0 0.0
2015-Jun-27 18:32N 59°20' E 018°04'0 0.0
2015-Jun-27 17:32N 59°20' E 018°04'0 0.0
2015-Jun-27 16:32N 59°20' E 018°04'0 0.0
2015-Jun-27 15:29N 59°20' E 018°04'0 0.0
2015-Jun-27 14:29N 59°20' E 018°04'0 0.0
2015-Jun-27 13:32N 59°20' E 018°04'3 3.3
2015-Jun-27 12:32N 59°20' E 018°11'5 0.9
2015-Jun-27 07:20N 59°23' E 018°19'8 9.9
2015-Jun-27 06:33N 59°20' E 018°05'0 0.1
2015-Jun-27 05:32N 59°20' E 018°04'0 0.0
2015-Jun-27 04:32N 59°20' E 018°04'0 0.0
2015-Jun-27 03:32N 59°20' E 018°04'0 0.0
2015-Jun-27 02:32N 59°20' E 018°04'0 0.0
2015-Jun-27 01:32N 59°20' E 018°04'0 0.0
2015-Jun-27 00:29N 59°20' E 018°04'0 0.0
2015-Jun-26 23:32N 59°20' E 018°04'0 0.0
2015-Jun-26 22:32N 59°20' E 018°04'0 0.0
2015-Jun-26 21:29N 59°20' E 018°04'0 0.0
2015-Jun-26 20:32N 59°20' E 018°04'0 0.0
2015-Jun-26 19:32N 59°20' E 018°04'0 0.0
2015-Jun-26 18:26N 59°20' E 018°04'0 0.0
2015-Jun-26 17:29N 59°20' E 018°04'7 7.1
2015-Jun-26 16:27N 59°23' E 018°18'0 0.1
2015-Jun-26 10:12N 59°22' E 018°18'811.5
2015-Jun-26 09:32N 59°19' E 018°05'0 0.3
2015-Jun-26 08:31N 59°20' E 018°05'3 0.2
2015-Jun-25 15:28N 59°20' E 018°11'3 3.8
2015-Jun-25 14:32N 59°20' E 018°05'7 5.8
2015-Jun-25 13:16N 59°23' E 018°18'1 0.1
2015-Jun-25 07:14N 59°23' E 018°19'811.4
2015-Jun-25 06:33N 59°19' E 018°05'0 0.3
2015-Jun-25 05:32N 59°20' E 018°05'0 0.0
2015-Jun-25 04:32N 59°20' E 018°05'0 0.0
2015-Jun-25 03:32N 59°20' E 018°05'0 0.0
2015-Jun-25 02:32N 59°20' E 018°05'0 0.0
2015-Jun-25 01:32N 59°20' E 018°05'0 0.0
2015-Jun-25 00:32N 59°20' E 018°05'0 0.0
2015-Jun-24 23:32N 59°20' E 018°05'0 0.0
2015-Jun-24 22:32N 59°20' E 018°05'0 0.0
2015-Jun-24 21:32N 59°20' E 018°05'0 0.0
2015-Jun-24 20:32N 59°20' E 018°05'  
Track history (hours):
 
Tides and Currents Weather Stations Pressure Air Temp Water Temp Dewpoint Dewpoint Depression Visibility Wind Speed Wind Dir Waves Ship Positions

Varmdo

Last reported at 2015-Jul-04 20:31 UTC. Time now 2015-Jul-04 20:43 UTC.
Position N 59°20' E 018°05'.

Length 38 m; draft 2.5 m.

Type: Passenger vessel. MMSI: 265520390.

Date/timePositionNaut miles runAvg speedWind from/ knotsBaromVisibWave heightAir tempDewpointWater temp
2015-Jul-04 20:31N 59°20' E 018°05'0 0.0
2015-Jul-04 19:31N 59°20' E 018°05'0 0.0
2015-Jul-04 18:31N 59°20' E 018°05'0 0.0
2015-Jul-04 17:28N 59°20' E 018°05'0 0.0
2015-Jul-04 16:31N 59°20' E 018°05'0 0.0
2015-Jul-04 15:31N 59°20' E 018°05'7 5.9
2015-Jul-04 14:16N 59°23' E 018°18'6 6.1
2015-Jul-04 13:13N 59°19' E 018°07'2 2.6
2015-Jul-04 12:30N 59°20' E 018°11'5 1.0
2015-Jul-04 07:17N 59°23' E 018°19'810.5
2015-Jul-04 06:33N 59°19' E 018°05'0 0.3
2015-Jul-04 05:33N 59°20' E 018°04'0 0.0
2015-Jul-04 04:31N 59°20' E 018°04'0 0.0
2015-Jul-04 03:33N 59°20' E 018°04'0 0.0
2015-Jul-04 02:34N 59°20' E 018°04'0 0.0
2015-Jul-04 01:31N 59°20' E 018°04'0 0.0
2015-Jul-04 00:30N 59°20' E 018°04'0 0.0
2015-Jul-03 23:31N 59°20' E 018°04'0 0.0
2015-Jul-03 22:33N 59°20' E 018°04'0 0.0
2015-Jul-03 21:34N 59°20' E 018°04'0 0.0
2015-Jul-03 20:31N 59°20' E 018°04'0 0.0
2015-Jul-03 19:34N 59°20' E 018°04'0 0.0
2015-Jul-03 18:31N 59°20' E 018°04'0 0.0
2015-Jul-03 17:34N 59°20' E 018°04'0 0.1
2015-Jul-03 09:33N 59°19' E 018°05'0 0.4
2015-Jul-03 08:33N 59°20' E 018°05'3 0.2
2015-Jul-02 15:28N 59°20' E 018°11'3 2.4
2015-Jul-02 14:04N 59°20' E 018°05'7 8.7
2015-Jul-02 13:15N 59°23' E 018°17'1 0.2
2015-Jul-02 07:16N 59°23' E 018°20'811.7
2015-Jul-02 06:34N 59°19' E 018°05'0 0.4
2015-Jul-02 05:33N 59°20' E 018°05'0 0.0
2015-Jul-02 04:33N 59°20' E 018°05'0 0.0
2015-Jul-02 03:33N 59°20' E 018°05'0 0.0
2015-Jul-02 02:33N 59°20' E 018°05'0 0.0
2015-Jul-02 01:33N 59°20' E 018°05'0 0.0
2015-Jul-02 00:33N 59°20' E 018°05'0 0.0
2015-Jul-01 23:27N 59°20' E 018°05'0 0.0
2015-Jul-01 22:33N 59°20' E 018°05'0 0.0
2015-Jul-01 21:33N 59°20' E 018°05'0 0.0
2015-Jul-01 20:30N 59°20' E 018°05'0 0.0
2015-Jul-01 14:33N 59°19' E 018°05'0 0.3
2015-Jul-01 13:33N 59°20' E 018°05'0 0.0
2015-Jul-01 12:33N 59°20' E 018°05'0 0.0
2015-Jul-01 11:33N 59°20' E 018°05'0 0.0
2015-Jul-01 10:33N 59°20' E 018°05'0 0.0
2015-Jul-01 09:33N 59°20' E 018°05'0 0.0
2015-Jul-01 08:33N 59°20' E 018°05'0 0.0
2015-Jun-30 13:33N 59°20' E 018°05'3 2.7
2015-Jun-30 12:33N 59°19' E 018°10'3 0.6
2015-Jun-30 07:33N 59°20' E 018°05'0 0.0
2015-Jun-30 06:27N 59°20' E 018°05'4 0.2
2015-Jun-29 14:23N 59°20' E 018°12'4 4.2
2015-Jun-29 13:32N 59°20' E 018°05'4 0.5
2015-Jun-29 06:23N 59°20' E 018°11'4 3.9
2015-Jun-29 05:29N 59°20' E 018°04'0 0.0
2015-Jun-29 04:29N 59°20' E 018°04'0 0.0
2015-Jun-29 03:32N 59°20' E 018°04'0 0.0
2015-Jun-29 02:29N 59°20' E 018°04'0 0.0
2015-Jun-29 01:32N 59°20' E 018°04'0 0.0
2015-Jun-29 00:32N 59°20' E 018°04'0 0.0
2015-Jun-28 23:29N 59°20' E 018°04'0 0.0
2015-Jun-28 22:32N 59°20' E 018°04'0 0.0
2015-Jun-28 21:32N 59°20' E 018°04'0 0.0
2015-Jun-28 20:32N 59°20' E 018°04'0 0.0
2015-Jun-28 19:32N 59°20' E 018°04'0 0.2
2015-Jun-28 18:33N 59°20' E 018°05'3 0.5
2015-Jun-28 13:33N 59°19' E 018°10'5 3.9
2015-Jun-28 12:12N 59°23' E 018°18'7 1.3
2015-Jun-28 06:33N 59°20' E 018°05'0 0.2
2015-Jun-28 05:32N 59°20' E 018°04'0 0.0
2015-Jun-28 04:32N 59°20' E 018°04'0 0.0
2015-Jun-28 03:32N 59°20' E 018°04'0 0.0
2015-Jun-28 02:32N 59°20' E 018°04'0 0.0
2015-Jun-28 01:26N 59°20' E 018°04'0 0.0
2015-Jun-28 00:32N 59°20' E 018°04'0 0.0
2015-Jun-27 23:32N 59°20' E 018°04'0 0.0
2015-Jun-27 22:26N 59°20' E 018°04'0 0.0
2015-Jun-27 21:32N 59°20' E 018°04'0 0.0
2015-Jun-27 20:32N 59°20' E 018°04'0 0.0
2015-Jun-27 19:32N 59°20' E 018°04'0 0.0
2015-Jun-27 18:32N 59°20' E 018°04'0 0.0
2015-Jun-27 17:32N 59°20' E 018°04'0 0.0
2015-Jun-27 16:32N 59°20' E 018°04'0 0.0
2015-Jun-27 15:29N 59°20' E 018°04'0 0.0
2015-Jun-27 14:29N 59°20' E 018°04'0 0.0
2015-Jun-27 13:32N 59°20' E 018°04'3 3.3
2015-Jun-27 12:32N 59°20' E 018°11'5 0.9
2015-Jun-27 07:20N 59°23' E 018°19'8 9.9
2015-Jun-27 06:33N 59°20' E 018°05'0 0.1
2015-Jun-27 05:32N 59°20' E 018°04'0 0.0
2015-Jun-27 04:32N 59°20' E 018°04'0 0.0
2015-Jun-27 03:32N 59°20' E 018°04'0 0.0
2015-Jun-27 02:32N 59°20' E 018°04'0 0.0
2015-Jun-27 01:32N 59°20' E 018°04'0 0.0
2015-Jun-27 00:29N 59°20' E 018°04'0 0.0
2015-Jun-26 23:32N 59°20' E 018°04'0 0.0
2015-Jun-26 22:32N 59°20' E 018°04'0 0.0
2015-Jun-26 21:29N 59°20' E 018°04'0 0.0
2015-Jun-26 20:32N 59°20' E 018°04'0 0.0
2015-Jun-26 19:32N 59°20' E 018°04'0 0.0
2015-Jun-26 18:26N 59°20' E 018°04'0 0.0
2015-Jun-26 17:29N 59°20' E 018°04'7 7.1
2015-Jun-26 16:27N 59°23' E 018°18'0 0.1
2015-Jun-26 10:12N 59°22' E 018°18'811.5
2015-Jun-26 09:32N 59°19' E 018°05'0 0.3
2015-Jun-26 08:31N 59°20' E 018°05'3 0.2
2015-Jun-25 15:28N 59°20' E 018°11'3 3.8
2015-Jun-25 14:32N 59°20' E 018°05'7 5.8
2015-Jun-25 13:16N 59°23' E 018°18'1 0.1
2015-Jun-25 07:14N 59°23' E 018°19'811.4
2015-Jun-25 06:33N 59°19' E 018°05'0 0.3
2015-Jun-25 05:32N 59°20' E 018°05'0 0.0
2015-Jun-25 04:32N 59°20' E 018°05'0 0.0
2015-Jun-25 03:32N 59°20' E 018°05'0 0.0
2015-Jun-25 02:32N 59°20' E 018°05'0 0.0
2015-Jun-25 01:32N 59°20' E 018°05'0 0.0
2015-Jun-25 00:32N 59°20' E 018°05'0 0.0
2015-Jun-24 23:32N 59°20' E 018°05'0 0.0
2015-Jun-24 22:32N 59°20' E 018°05'0 0.0
2015-Jun-24 21:32N 59°20' E 018°05'0 0.0
2015-Jun-24 20:32N 59°20' E 018°05'  

Dump ship's entire track history